createdAt,value
2023-04-10T00:02:14.643Z,85.36
2023-04-10T00:04:43.665Z,85.59
2023-04-10T00:07:11.060Z,85.57
2023-04-10T00:09:38.170Z,85.50
2023-04-10T00:12:05.103Z,85.39
2023-04-10T00:14:40.537Z,85.81
2023-04-10T00:17:10.463Z,85.58
2023-04-10T00:19:37.128Z,85.43
2023-04-10T00:22:04.967Z,85.63
2023-04-10T00:24:31.502Z,85.58
2023-04-10T00:26:58.203Z,85.25
2023-04-10T00:29:25.201Z,85.53
2023-04-10T00:31:51.824Z,85.31
2023-04-10T00:34:18.482Z,85.43
2023-04-10T00:36:47.323Z,85.90
2023-04-10T00:39:14.266Z,85.60
2023-04-10T00:41:40.895Z,85.67
2023-04-10T00:44:09.156Z,85.84
2023-04-10T00:47:02.412Z,85.61
2023-04-10T00:49:28.903Z,85.86
2023-04-10T00:51:56.627Z,86.12
2023-04-10T00:54:25.338Z,85.55
2023-04-10T00:56:53.291Z,85.82
2023-04-10T00:59:19.909Z,85.69
2023-04-10T01:01:46.605Z,85.99
2023-04-10T01:04:13.884Z,85.96
2023-04-10T01:06:40.826Z,85.54
2023-04-10T01:09:25.749Z,85.67
2023-04-10T01:12:21.384Z,85.97
2023-04-10T01:14:54.550Z,85.89
2023-04-10T01:17:42.910Z,85.59
2023-04-10T01:20:13.288Z,85.69
2023-04-10T01:23:21.905Z,85.85
2023-04-10T01:25:51.512Z,86.00
2023-04-10T01:28:55.599Z,86.59
2023-04-10T01:31:46.001Z,86.37
2023-04-10T01:34:19.156Z,86.17
2023-04-10T01:37:12.165Z,86.25
2023-04-10T01:39:41.795Z,86.24
2023-04-10T01:42:12.108Z,86.39
2023-04-10T01:44:43.082Z,86.49
2023-04-10T01:47:09.840Z,86.65
2023-04-10T01:49:42.655Z,86.46
2023-04-10T01:52:11.399Z,86.84
2023-04-10T01:54:45.596Z,86.37
2023-04-10T01:57:30.881Z,86.50
2023-04-10T01:59:58.285Z,86.43
2023-04-10T02:02:24.951Z,86.79
2023-04-10T02:04:51.981Z,86.58
2023-04-10T02:07:52.904Z,86.54
2023-04-10T02:10:28.544Z,86.95
2023-04-10T02:13:09.963Z,86.54
2023-04-10T02:15:37.142Z,86.58
2023-04-10T02:18:05.027Z,86.97
2023-04-10T02:20:32.503Z,86.94
2023-04-10T02:23:03.698Z,86.86
2023-04-10T02:25:34.098Z,87.23
2023-04-10T02:28:08.367Z,87.01
2023-04-10T02:30:35.244Z,87.58
2023-04-10T02:33:01.999Z,87.45
2023-04-10T02:35:29.406Z,87.44
2023-04-10T02:37:56.307Z,87.54
2023-04-10T02:40:25.910Z,87.45
2023-04-10T02:42:52.453Z,87.29
2023-04-10T02:45:19.155Z,86.83
2023-04-10T02:47:45.722Z,87.03
2023-04-10T02:50:12.339Z,87.20
2023-04-10T02:52:39.145Z,86.95
2023-04-10T02:55:06.453Z,87.31
2023-04-10T02:57:34.688Z,87.52
2023-04-10T03:00:03.305Z,87.20
2023-04-10T03:02:30.163Z,87.03
2023-04-10T03:04:57.033Z,87.37
2023-04-10T03:07:23.779Z,87.44
2023-04-10T03:09:50.690Z,87.42
2023-04-10T03:12:20.637Z,87.06
2023-04-10T03:14:48.226Z,87.24
2023-04-10T03:17:14.737Z,87.02
2023-04-10T03:19:42.884Z,86.98
2023-04-10T03:22:12.392Z,86.85
2023-04-10T03:24:42.533Z,86.98
2023-04-10T03:27:11.836Z,87.53
2023-04-10T03:29:38.653Z,86.91
2023-04-10T03:32:31.239Z,87.00
2023-04-10T03:34:59.473Z,87.22
2023-04-10T03:37:27.692Z,87.23
2023-04-10T03:39:54.359Z,87.23
2023-04-10T03:42:21.033Z,87.08
2023-04-10T03:44:47.600Z,87.59
2023-04-10T03:47:14.283Z,87.54
2023-04-10T03:49:40.935Z,87.32
2023-04-10T03:52:09.426Z,87.40
2023-04-10T03:54:36.254Z,87.22
2023-04-10T03:57:02.844Z,87.73
2023-04-10T03:59:41.278Z,87.47
2023-04-10T04:02:11.584Z,87.46
2023-04-10T04:04:45.535Z,87.56
2023-04-10T04:07:13.689Z,87.90
2023-04-10T04:09:41.336Z,87.50
2023-04-10T04:12:10.497Z,87.97
2023-04-10T04:14:37.133Z,87.52
2023-04-10T04:17:03.708Z,87.91
2023-04-10T04:19:31.361Z,87.89
2023-04-10T04:21:58.014Z,87.71
2023-04-10T04:24:24.686Z,87.25
2023-04-10T04:27:10.659Z,87.81
2023-04-10T04:29:39.439Z,87.65
2023-04-10T04:32:05.995Z,87.72
2023-04-10T04:34:32.606Z,87.67
2023-04-10T04:37:10.491Z,87.75
2023-04-10T04:39:41.532Z,87.97
2023-04-10T04:42:10.422Z,87.70
2023-04-10T04:44:41.471Z,88.16
2023-04-10T04:47:12.533Z,87.91
2023-04-10T04:49:39.299Z,87.71
2023-04-10T04:52:11.505Z,87.74
2023-04-10T04:54:38.415Z,87.54
2023-04-10T04:57:05.010Z,87.91
2023-04-10T04:59:31.563Z,87.51
2023-04-10T05:01:58.382Z,87.46
2023-04-10T05:04:25.260Z,87.47
2023-04-10T05:06:51.956Z,87.86
2023-04-10T05:09:25.885Z,87.82
2023-04-10T05:11:54.110Z,87.79
2023-04-10T05:14:22.341Z,87.55
2023-04-10T05:16:48.958Z,87.62
2023-04-10T05:19:19.404Z,87.72
2023-04-10T05:21:46.044Z,88.00
2023-04-10T05:24:12.670Z,87.93
2023-04-10T05:26:42.580Z,88.05
2023-04-10T05:29:23.500Z,88.06
2023-04-10T05:31:51.599Z,87.99
2023-04-10T05:34:38.441Z,88.13
2023-04-10T05:37:05.219Z,87.95
2023-04-10T05:39:31.871Z,87.61
2023-04-10T05:41:58.455Z,87.92
2023-04-10T05:44:31.069Z,87.82
2023-04-10T05:46:57.713Z,87.46
2023-04-10T05:49:41.114Z,86.82
2023-04-10T05:52:09.982Z,86.96
2023-04-10T05:54:36.704Z,86.63
2023-04-10T05:57:03.305Z,87.21
2023-04-10T05:59:31.164Z,86.42
2023-04-10T06:02:00.195Z,86.05
2023-04-10T06:04:27.150Z,86.62
2023-04-10T06:06:56.213Z,86.83
2023-04-10T06:09:22.765Z,86.00
2023-04-10T06:11:49.460Z,86.21
2023-04-10T06:14:30.999Z,86.30
2023-04-10T06:17:00.910Z,86.44
2023-04-10T06:19:30.376Z,86.41
2023-04-10T06:22:34.896Z,86.28
2023-04-10T06:25:01.525Z,86.25
2023-04-10T06:27:29.218Z,85.87
2023-04-10T06:29:57.808Z,85.89
2023-04-10T06:32:24.414Z,85.25
2023-04-10T06:34:51.331Z,84.93
2023-04-10T06:37:19.417Z,84.79
2023-04-10T06:39:48.333Z,84.43
2023-04-10T06:42:14.939Z,84.17
2023-04-10T06:44:43.515Z,83.96
2023-04-10T06:47:13.906Z,83.11
2023-04-10T06:49:42.707Z,83.21
2023-04-10T06:52:11.398Z,83.01
2023-04-10T06:54:49.938Z,82.93
2023-04-10T06:57:17.157Z,81.42
2023-04-10T06:59:43.875Z,80.56
2023-04-10T07:02:10.571Z,80.24
2023-04-10T07:04:41.938Z,80.50
2023-04-10T07:07:12.836Z,80.21
2023-04-10T07:09:40.598Z,79.64
2023-04-10T07:12:11.068Z,78.16
2023-04-10T07:14:39.458Z,78.31
2023-04-10T07:17:06.936Z,77.63
2023-04-10T07:19:33.621Z,76.36
2023-04-10T07:22:00.849Z,76.42
2023-04-10T07:24:28.045Z,73.82
2023-04-10T07:26:54.797Z,74.99
2023-04-10T07:29:21.475Z,73.81
2023-04-10T07:31:48.348Z,73.69
2023-04-10T07:34:19.765Z,72.75
2023-04-10T07:36:47.230Z,73.80
2023-04-10T07:39:13.926Z,72.90
2023-04-10T07:41:42.384Z,72.91
2023-04-10T07:44:13.131Z,73.21
2023-04-10T07:46:39.836Z,72.71
2023-04-10T07:49:08.522Z,73.01
2023-04-10T07:51:37.910Z,72.16
2023-04-10T07:54:22.597Z,72.59
2023-04-10T07:56:51.717Z,72.72
2023-04-10T07:59:18.301Z,72.86
2023-04-10T08:01:45.065Z,72.99
2023-04-10T08:04:11.928Z,73.08
2023-04-10T08:06:46.856Z,72.26
2023-04-10T08:09:14.776Z,72.38
2023-04-10T08:11:41.479Z,72.04
2023-04-10T08:14:10.252Z,71.03
2023-04-10T08:16:37.616Z,71.78
2023-04-10T08:19:04.392Z,69.89
2023-04-10T08:21:44.252Z,69.72
2023-04-10T08:24:10.865Z,69.23
2023-04-10T08:26:38.502Z,69.14
2023-04-10T08:29:05.417Z,69.38
2023-04-10T08:31:35.031Z,69.09
2023-04-10T08:34:01.669Z,67.99
2023-04-10T08:36:43.462Z,67.36
2023-04-10T08:39:25.356Z,67.00
2023-04-10T08:41:57.107Z,64.62
2023-04-10T08:44:24.766Z,65.20
2023-04-10T08:46:52.818Z,65.16
2023-04-10T08:49:41.116Z,64.50
2023-04-10T08:52:11.894Z,64.87
2023-04-10T08:54:41.453Z,62.66
2023-04-10T08:57:13.849Z,63.66
2023-04-10T08:59:53.089Z,63.13
2023-04-10T09:02:25.007Z,63.04
2023-04-10T09:05:13.180Z,62.38
2023-04-10T09:07:39.988Z,61.21
2023-04-10T09:10:18.814Z,60.30
2023-04-10T09:12:49.247Z,59.33
2023-04-10T09:15:17.032Z,59.40
2023-04-10T09:17:59.926Z,59.02
2023-04-10T09:21:06.809Z,57.38
2023-04-10T09:23:33.439Z,58.73
2023-04-10T09:26:01.479Z,58.55
2023-04-10T09:28:28.165Z,57.84
2023-04-10T09:30:54.987Z,56.82
2023-04-10T09:34:13.799Z,57.55
2023-04-10T09:37:01.426Z,57.62
2023-04-10T09:39:43.423Z,57.22
2023-04-10T09:42:30.775Z,56.25
2023-04-10T09:44:57.682Z,56.08
2023-04-10T09:47:40.245Z,54.46
2023-04-10T09:50:16.571Z,52.35
2023-04-10T09:52:43.398Z,51.04
2023-04-10T09:55:35.762Z,51.98
2023-04-10T09:58:21.601Z,52.21
2023-04-10T10:00:49.678Z,51.79
2023-04-10T10:03:20.033Z,52.77
2023-04-10T10:05:49.916Z,51.20
2023-04-10T10:08:17.761Z,49.29
2023-04-10T10:10:53.753Z,48.30
2023-04-10T10:13:34.944Z,49.01
2023-04-10T10:16:27.681Z,49.10
2023-04-10T10:19:13.169Z,48.14
2023-04-10T10:21:44.991Z,49.07
2023-04-10T10:24:14.862Z,47.19
2023-04-10T10:26:43.259Z,47.86
2023-04-10T10:29:14.156Z,46.85
2023-04-10T10:31:41.661Z,45.39
2023-04-10T10:34:10.165Z,45.99
2023-04-10T10:36:39.824Z,45.68
2023-04-10T10:39:31.066Z,46.18
2023-04-10T10:42:11.740Z,44.82
2023-04-10T10:44:52.802Z,43.73
2023-04-10T10:47:29.170Z,44.94
2023-04-10T10:49:59.693Z,44.64
2023-04-10T10:52:49.770Z,44.63
2023-04-10T10:55:22.440Z,44.76
2023-04-10T10:58:05.207Z,41.99
2023-04-10T11:00:50.437Z,42.15
2023-04-10T11:03:20.074Z,41.29
2023-04-10T11:05:55.114Z,41.69
2023-04-10T11:08:53.014Z,40.73
2023-04-10T11:11:27.447Z,38.20
2023-04-10T11:13:56.411Z,38.58
2023-04-10T11:16:36.501Z,38.58
2023-04-10T11:19:13.819Z,39.42
2023-04-10T11:22:05.959Z,39.56
2023-04-10T11:25:01.931Z,39.63
2023-04-10T11:27:45.973Z,38.71
2023-04-10T11:30:32.761Z,38.67
2023-04-10T11:33:01.327Z,40.13
2023-04-10T11:35:28.968Z,39.16
2023-04-10T11:38:09.297Z,38.27
2023-04-10T11:40:37.441Z,38.29
2023-04-10T11:43:14.572Z,37.92
2023-04-10T11:45:41.286Z,37.57
2023-04-10T11:48:09.948Z,38.81
2023-04-10T11:50:36.974Z,38.10
2023-04-10T11:53:18.086Z,37.35
2023-04-10T11:55:44.744Z,37.20
2023-04-10T11:58:28.299Z,38.16
2023-04-10T12:01:03.186Z,37.02
2023-04-10T12:03:43.685Z,37.00
2023-04-10T12:06:43.405Z,35.31
2023-04-10T12:09:15.763Z,36.62
2023-04-10T12:12:04.196Z,36.25
2023-04-10T12:14:35.936Z,36.83
2023-04-10T12:17:03.907Z,37.20
2023-04-10T12:19:33.873Z,36.52
2023-04-10T12:22:04.006Z,36.07
2023-04-10T12:24:49.903Z,37.10
2023-04-10T12:27:29.004Z,34.69
2023-04-10T12:29:58.042Z,34.08
2023-04-10T12:32:27.606Z,34.08
2023-04-10T12:34:59.543Z,33.23
2023-04-10T12:37:49.073Z,34.30
2023-04-10T12:40:15.727Z,33.13
2023-04-10T12:42:43.105Z,32.93
2023-04-10T12:45:14.167Z,33.07
2023-04-10T12:47:46.381Z,33.23
2023-04-10T12:50:18.224Z,33.73
2023-04-10T12:52:46.643Z,33.79
2023-04-10T12:55:21.391Z,33.54
2023-04-10T12:57:49.184Z,32.48
2023-04-10T13:00:25.841Z,32.80
2023-04-10T13:02:52.862Z,33.76
2023-04-10T13:05:40.551Z,33.27
2023-04-10T13:08:07.165Z,31.98
2023-04-10T13:10:44.096Z,31.97
2023-04-10T13:13:18.521Z,33.02
2023-04-10T13:16:00.634Z,32.05
2023-04-10T13:18:27.412Z,32.16
2023-04-10T13:20:54.073Z,32.76
2023-04-10T13:23:21.026Z,33.08
2023-04-10T13:25:47.677Z,33.49
2023-04-10T13:28:34.267Z,34.36
2023-04-10T13:31:01.009Z,34.16
2023-04-10T13:33:27.658Z,33.21
2023-04-10T13:35:55.897Z,32.84
2023-04-10T13:38:22.651Z,33.42
2023-04-10T13:40:49.303Z,33.78
2023-04-10T13:43:15.924Z,33.65
2023-04-10T13:45:48.406Z,34.79
2023-04-10T13:48:22.081Z,34.45
2023-04-10T13:50:53.545Z,34.37
2023-04-10T13:53:20.157Z,34.05
2023-04-10T13:55:53.181Z,33.53
2023-04-10T13:58:19.753Z,33.73
2023-04-10T14:00:46.520Z,33.60
2023-04-10T14:03:15.494Z,34.25
2023-04-10T14:05:42.205Z,34.71
2023-04-10T14:08:20.567Z,34.70
2023-04-10T14:10:53.187Z,35.00
2023-04-10T14:13:20.570Z,35.13
2023-04-10T14:15:48.348Z,35.88
2023-04-10T14:18:17.605Z,35.21
2023-04-10T14:20:45.962Z,35.21
2023-04-10T14:23:18.458Z,36.05
2023-04-10T14:25:46.083Z,37.19
2023-04-10T14:28:17.976Z,36.75
2023-04-10T14:30:47.621Z,36.42
2023-04-10T14:33:19.699Z,36.21
2023-04-10T14:35:47.522Z,35.89
2023-04-10T14:38:15.807Z,36.25
2023-04-10T14:40:45.789Z,36.10
2023-04-10T14:43:12.411Z,36.14
2023-04-10T14:45:45.496Z,35.83
2023-04-10T14:48:12.890Z,36.19
2023-04-10T14:50:43.563Z,36.30
2023-04-10T14:53:10.541Z,36.48
2023-04-10T14:55:37.616Z,35.83
2023-04-10T14:58:09.749Z,35.71
2023-04-10T15:00:36.821Z,35.38
2023-04-10T15:03:06.216Z,35.39
2023-04-10T15:05:33.141Z,35.44
2023-04-10T15:07:59.916Z,35.92
2023-04-10T15:10:29.601Z,36.10
2023-04-10T15:12:56.161Z,36.23
2023-04-10T15:15:22.816Z,35.70
2023-04-10T15:17:49.901Z,37.03
2023-04-10T15:20:16.726Z,37.63
2023-04-10T15:22:45.083Z,37.93
2023-04-10T15:25:17.810Z,37.80
2023-04-10T15:27:44.496Z,38.28
2023-04-10T15:30:13.894Z,37.89
2023-04-10T15:32:41.631Z,38.07
2023-04-10T15:35:11.332Z,38.14
2023-04-10T15:37:38.072Z,38.96
2023-04-10T15:40:15.578Z,39.38
2023-04-10T15:42:42.406Z,39.65
2023-04-10T15:45:14.325Z,39.59
2023-04-10T15:47:49.724Z,39.63
2023-04-10T15:50:16.416Z,39.84
2023-04-10T15:52:43.198Z,39.88
2023-04-10T15:55:09.974Z,40.20
2023-04-10T15:57:36.532Z,40.40
2023-04-10T16:00:04.505Z,40.95
2023-04-10T16:02:32.787Z,41.27
2023-04-10T16:05:10.165Z,41.60
2023-04-10T16:07:38.507Z,41.54
2023-04-10T16:10:06.489Z,41.32
2023-04-10T16:12:40.384Z,41.20
2023-04-10T16:15:08.457Z,41.53
2023-04-10T16:17:35.489Z,42.01
2023-04-10T16:20:06.740Z,42.45
2023-04-10T16:22:33.299Z,42.51
2023-04-10T16:25:00.825Z,42.89
2023-04-10T16:27:27.438Z,42.92
2023-04-10T16:29:53.965Z,43.10
2023-04-10T16:32:22.468Z,43.48
2023-04-10T16:34:49.016Z,43.85
2023-04-10T16:37:15.661Z,44.08
2023-04-10T16:39:42.350Z,44.23
2023-04-10T16:42:10.479Z,44.62
2023-04-10T16:44:37.209Z,44.46
2023-04-10T16:47:08.310Z,44.54
2023-04-10T16:49:35.018Z,44.06
2023-04-10T16:52:01.659Z,44.08
2023-04-10T16:54:28.421Z,44.54
2023-04-10T16:56:57.061Z,44.51
2023-04-10T16:59:23.824Z,44.55
2023-04-10T17:01:51.960Z,44.74
2023-04-10T17:04:20.498Z,44.79
2023-04-10T17:06:49.120Z,45.02
2023-04-10T17:09:15.617Z,45.44
2023-04-10T17:11:44.600Z,45.30
2023-04-10T17:14:13.317Z,45.79
2023-04-10T17:16:52.099Z,46.03
2023-04-10T17:19:18.734Z,45.70
2023-04-10T17:21:52.332Z,45.93
2023-04-10T17:24:19.104Z,46.06
2023-04-10T17:26:46.905Z,46.08
2023-04-10T17:29:14.821Z,46.56
2023-04-10T17:31:41.375Z,46.42
2023-04-10T17:34:08.241Z,46.92
2023-04-10T17:36:36.111Z,47.25
2023-04-10T17:39:02.816Z,47.69
2023-04-10T17:41:29.447Z,47.66
2023-04-10T17:43:56.240Z,47.72
2023-04-10T17:46:23.338Z,48.05
2023-04-10T17:48:49.918Z,48.08
2023-04-10T17:51:16.510Z,48.52
2023-04-10T17:53:45.316Z,48.45
2023-04-10T17:56:19.670Z,48.70
2023-04-10T17:58:47.679Z,48.40
2023-04-10T18:01:31.073Z,48.60
2023-04-10T18:03:59.225Z,49.05
2023-04-10T18:06:34.212Z,48.99
2023-04-10T18:09:03.700Z,49.07
2023-04-10T18:14:32.051Z,49.34
2023-04-10T18:17:00.087Z,49.78
2023-04-10T18:19:26.994Z,49.89
2023-04-10T18:21:53.585Z,49.90
2023-04-10T18:24:20.313Z,49.99
2023-04-10T18:26:49.185Z,49.99
2023-04-10T18:29:15.983Z,50.54
2023-04-10T18:31:42.955Z,50.12
2023-04-10T18:34:10.214Z,50.20
2023-04-10T18:36:39.648Z,50.44
2023-04-10T18:39:07.920Z,50.55
2023-04-10T18:42:02.931Z,50.98
2023-04-10T18:44:30.609Z,51.00
2023-04-10T18:47:04.365Z,51.35
2023-04-10T18:49:32.207Z,51.46
2023-04-10T18:52:04.093Z,51.52
2023-04-10T18:54:30.799Z,51.18
2023-04-10T18:56:58.407Z,51.26
2023-04-10T18:59:29.986Z,51.27
2023-04-10T19:02:04.260Z,52.15
2023-04-10T19:07:12.828Z,52.14
2023-04-10T19:09:43.701Z,51.90
2023-04-10T19:12:10.765Z,52.20
2023-04-10T19:15:13.822Z,52.30
2023-04-10T19:17:42.796Z,52.50
2023-04-10T19:20:09.933Z,52.44
2023-04-10T19:22:47.376Z,52.44
2023-04-10T19:25:20.353Z,52.56
2023-04-10T19:27:48.347Z,51.97
2023-04-10T19:30:15.610Z,51.84
2023-04-10T19:32:44.865Z,51.81
2023-04-10T19:35:17.209Z,51.92
2023-04-10T19:37:44.480Z,51.60
2023-04-10T19:40:16.566Z,51.75
2023-04-10T19:42:43.878Z,51.71
2023-04-10T19:45:15.855Z,51.96
2023-04-10T19:47:48.690Z,52.08
2023-04-10T19:50:15.781Z,52.25
2023-04-10T19:52:44.400Z,52.05
2023-04-10T19:55:15.585Z,51.81
2023-04-10T19:57:44.628Z,51.99
2023-04-10T20:00:17.522Z,51.71
2023-04-10T20:02:45.496Z,51.85
2023-04-10T20:05:15.887Z,51.52
2023-04-10T20:07:46.420Z,51.65
2023-04-10T20:10:13.081Z,51.95
2023-04-10T20:12:42.787Z,51.86
2023-04-10T20:15:13.713Z,51.82
2023-04-10T20:17:41.837Z,51.75
2023-04-10T20:20:12.793Z,51.73
2023-04-10T20:22:43.114Z,51.91
2023-04-10T20:25:10.408Z,52.32
2023-04-10T20:27:37.040Z,51.89
2023-04-10T20:30:05.830Z,51.94
2023-04-10T20:32:32.398Z,51.68
2023-04-10T20:34:59.108Z,51.70
2023-04-10T20:37:25.717Z,51.42
2023-04-10T20:39:52.835Z,51.79
2023-04-10T20:42:19.984Z,51.93
2023-04-10T20:44:48.732Z,52.08
2023-04-10T20:47:15.950Z,51.92
2023-04-10T20:49:42.797Z,52.40
2023-04-10T20:52:10.879Z,52.48
2023-04-10T20:54:37.684Z,52.34
2023-04-10T20:57:06.002Z,52.60
2023-04-10T20:59:32.758Z,51.96
2023-04-10T21:01:59.647Z,52.20
2023-04-10T21:04:32.738Z,52.26
2023-04-10T21:06:59.296Z,52.41
2023-04-10T21:09:26.207Z,52.70
2023-04-10T21:11:55.045Z,52.32
2023-04-10T21:14:22.703Z,52.73
2023-04-10T21:16:50.654Z,52.94
2023-04-10T21:19:18.309Z,52.83
2023-04-10T21:21:44.832Z,52.75
2023-04-10T21:24:11.433Z,52.39
2023-04-10T21:26:38.074Z,51.69
2023-04-10T21:29:04.716Z,51.52
2023-04-10T21:31:32.650Z,51.97
2023-04-10T21:33:59.341Z,51.60
2023-04-10T21:36:26.596Z,51.68
2023-04-10T21:38:53.386Z,51.19
2023-04-10T21:41:20.858Z,50.94
2023-04-10T21:43:48.499Z,50.78
2023-04-10T21:46:15.037Z,50.59
2023-04-10T21:48:43.291Z,50.88
2023-04-10T21:51:12.854Z,50.60
2023-04-10T21:53:42.449Z,50.71
2023-04-10T21:56:12.204Z,50.66
2023-04-10T21:58:40.063Z,50.45
2023-04-10T22:01:08.877Z,50.40
2023-04-10T22:03:35.570Z,50.57
2023-04-10T22:06:02.744Z,50.70
2023-04-10T22:08:29.408Z,50.47
2023-04-10T22:10:56.053Z,50.41
2023-04-10T22:13:30.290Z,49.99
2023-04-10T22:15:58.114Z,50.33
2023-04-10T22:18:24.714Z,50.04
2023-04-10T22:20:51.558Z,50.19
2023-04-10T22:23:20.473Z,50.41
2023-04-10T22:25:47.103Z,50.07
2023-04-10T22:28:14.381Z,50.40
2023-04-10T22:30:41.111Z,50.27
2023-04-10T22:33:08.189Z,50.28
2023-04-10T22:35:34.812Z,50.06
2023-04-10T22:38:03.743Z,50.10
2023-04-10T22:40:31.606Z,49.80
2023-04-10T22:42:58.230Z,49.95
2023-04-10T22:45:24.832Z,49.96
2023-04-10T22:47:51.336Z,50.51
2023-04-10T22:50:18.120Z,50.11
2023-04-10T22:52:44.651Z,50.17
2023-04-10T22:55:11.606Z,50.24
2023-04-10T22:57:40.328Z,50.31
2023-04-10T23:00:09.734Z,50.14
2023-04-10T23:02:36.472Z,50.09
2023-04-10T23:05:03.422Z,50.35
2023-04-10T23:07:29.966Z,50.51
2023-04-10T23:09:56.704Z,50.41
2023-04-10T23:12:23.261Z,50.13
2023-04-10T23:14:49.822Z,50.51
2023-04-10T23:17:16.354Z,50.10
2023-04-10T23:19:44.996Z,50.22
2023-04-10T23:22:12.614Z,50.61
2023-04-10T23:24:40.644Z,50.41
2023-04-10T23:27:08.488Z,50.53
2023-04-10T23:29:35.517Z,50.70
2023-04-10T23:32:04.538Z,50.52
2023-04-10T23:34:34.547Z,50.73
2023-04-10T23:37:01.479Z,50.81
2023-04-10T23:39:30.452Z,50.71
2023-04-10T23:41:57.388Z,50.81
2023-04-10T23:44:24.354Z,50.41
2023-04-10T23:46:51.343Z,50.68
2023-04-10T23:49:18.948Z,50.54
2023-04-10T23:51:48.457Z,50.78
2023-04-10T23:54:14.994Z,51.08
2023-04-10T23:56:41.551Z,51.08
2023-04-10T23:59:11.012Z,51.41
